Latest Weather Observations for Bulman

IDD60801

Issued at 1:01 pm CST Friday 19 January 2018 (issued every 30 minutes, with the page automatically refreshed every 10 minutes)

About weather observations | Map of weather stations | Latest weather observations for NT | Other Formats
Station Details ID: 014627 Name: BULMAN Lat: -13.67 Lon: 134.34 Height: 103.4 m
Data from the previous 72 hours. | See also: Recent months at Bulman
Date/Time
CST
Temp
°C
App
Temp
°C
Dew
Point
°C
Rel
Hum
%
Delta-T
°C
Wind Press
QNH
hPa
Press
MSL
hPa
Rain since
9am
mm
Dir  Spd
km/h
Gust
km/h
Spd
kts
Gust
kts
19/01:00pm 30.7 34.0 23.9 67 4.7 N 13 26 7 14 1005.8 1005.1 0.0
19/12:30pm 32.0 36.1 23.3 60 6.0 N 7 15 4 8 1006.1 1005.4 0.0
19/12:00pm 31.1 35.2 23.2 63 5.5 N 7 17 4 9 1006.5 1005.7 0.0
19/11:30am 30.3 33.9 23.0 65 5.0 N 9 13 5 7 1006.8 1006.0 0.0
19/11:00am 30.1 34.0 22.5 63 5.2 N 6 9 3 5 1007.3 1006.5 0.0
19/10:30am 29.3 32.8 22.8 68 4.5 N 9 13 5 7 1007.8 1007.0 0.0
19/10:00am 28.7 32.3 23.1 71 3.8 N 9 11 5 6 1008.2 1007.4 0.0
19/09:30am 27.8 31.7 23.6 78 2.9 N 9 13 5 7 1008.4 1007.6 0.0
19/09:00am 27.7 32.2 23.9 80 2.6 NNE 7 11 4 6 1008.0 1007.2 20.0
19/08:30am 25.6 29.2 23.1 86 1.7 N 9 13 5 7 1007.6 1006.8 20.0
19/08:00am 25.5 29.8 23.6 89 1.3 NE 7 11 4 6 1007.4 1006.6 20.0
19/07:30am 24.8 28.2 21.7 83 2.1 S 6 9 3 5 1007.5 1006.7 20.0
19/07:00am 24.3 28.6 23.3 94 0.7 S 6 9 3 5 1007.4 1006.6 20.0
19/06:30am 24.2 28.3 20.7 81 2.3 CALM 0 0 0 0 1007.2 1006.4 20.0
19/06:00am 24.2 29.6 23.3 95 0.6 CALM 0 0 0 0 1006.9 1006.1 20.0
19/05:30am 24.2 28.9 21.9 87 1.5 CALM 0 0 0 0 1007.1 1006.3 20.0
19/05:00am 24.2 28.3 20.7 81 2.3 CALM 0 0 0 0 1007.1 1006.3 20.0
19/04:30am 24.1 28.5 21.4 85 1.8 CALM 0 0 0 0 1006.5 1005.7 19.8
19/04:00am 23.9 28.3 21.4 86 1.7 CALM 0 0 0 0 1005.9 1005.2 19.8
19/03:30am 24.0 29.3 23.1 95 0.6 CALM 0 0 0 0 1006.0 1005.3 19.8
19/03:00am 24.1 29.5 23.2 95 0.6 CALM 0 0 0 0 1005.8 1005.1 19.8
19/02:30am 24.1 29.6 23.4 96 0.5 CALM 0 0 0 0 1005.6 1004.9 19.8
19/02:00am 24.2 29.6 23.3 95 0.6 CALM 0 0 0 0 1005.9 1005.2 19.8
19/01:30am 24.1 29.6 23.4 96 0.5 CALM 0 0 0 0 1006.4 1005.6 19.8
19/01:00am 24.1 29.1 22.5 91 1.1 CALM 0 0 0 0 1006.9 1006.1 19.8
19/12:30am 24.0 28.7 23.3 96 0.5 NNW 4 7 2 4 1007.1 1006.3 19.8
19/12:00am 24.0 29.4 23.3 96 0.5 CALM 0 0 0 0 1007.5 1006.7 19.8
 
Date/Time
CST
Temp
°C
App
Temp
°C
Dew
Point
°C
Rel
Hum
%
Delta-T
°C
Wind Press
QNH
hPa
Press
MSL
hPa
Rain since
9am
mm
Dir  Spd
km/h
Gust
km/h
Spd
kts
Gust
kts
18/11:30pm 23.9 29.3 23.2 96 0.5 CALM 0 0 0 0 1007.9 1007.1 19.8
18/11:00pm 23.9 29.3 23.2 96 0.5 CALM 0 0 0 0 1008.4 1007.6 19.8
18/10:30pm 23.9 29.3 23.2 96 0.5 CALM 0 0 0 0 1008.5 1007.7 19.6
18/10:00pm 23.8 29.1 23.0 95 0.5 CALM 0 0 0 0 1008.7 1007.9 19.4
18/09:30pm 23.8 28.7 23.1 96 0.5 N 2 7 1 4 1008.5 1007.7 19.0
18/09:00pm 23.8 27.9 23.0 95 0.5 NE 6 11 3 6 1008.3 1007.5 18.4
18/08:30pm 23.9 27.8 22.5 92 0.9 NE 6 11 3 6 1008.3 1007.5 17.2
18/08:00pm 23.9 27.8 23.0 95 0.6 NNE 7 13 4 7 1008.3 1007.5 14.4
18/07:30pm 24.2 28.0 23.5 96 0.5 NNE 9 20 5 11 1008.4 1007.6 11.0
18/07:00pm 23.9 26.4 22.5 92 0.9 ENE 13 26 7 14 1008.1 1007.3 8.2
18/06:30pm 25.0 29.0 23.8 93 0.8 E 9 17 5 9 1007.5 1006.7 5.6
18/06:00pm 25.3 29.5 24.1 93 0.8 ESE 9 20 5 11 1006.6 1005.8 5.2
18/05:30pm 25.3 31.3 24.3 94 0.7 CALM 0 0 0 0 1006.2 1005.5 5.0
18/05:00pm 25.1 30.3 24.2 95 0.6 SW 4 9 2 5 1005.7 1005.0 4.4
18/04:30pm 24.6 28.5 23.6 94 0.7 SSW 9 13 5 7 1005.6 1004.9 3.0
18/04:00pm 24.6 27.5 23.2 92 1.0 NNE 13 20 7 11 1004.7 1003.9 1.2
18/03:30pm 26.9 30.2 23.2 80 2.5 NNE 11 32 6 17 1004.7 1003.9 0.6
18/03:00pm 32.0 35.9 23.0 59 6.2 SE 7 11 4 6 1004.0 1003.2 0.0
18/02:30pm 32.6 35.5 21.8 53 7.4 ESE 9 15 5 8 1004.2 1003.4 0.0
18/02:00pm 33.3 36.1 23.0 54 7.1 SSE 13 17 7 9 1004.6 1003.8 0.0
18/01:30pm 31.6 35.3 23.2 61 5.8 ESE 9 13 5 7 1005.3 1004.6 0.0
18/01:00pm 32.6 36.4 23.5 58 6.3 SE 9 17 5 9 1005.7 1005.0 0.0
18/12:30pm 32.1 35.0 23.1 59 6.2 SE 13 22 7 12 1006.0 1005.3 0.0
18/12:00pm 31.6 34.4 22.3 57 6.4 ESE 11 17 6 9 1006.5 1005.7 0.0
18/11:30am 32.0 36.6 25.3 67 4.8 ESE 11 17 6 9 1007.0 1006.2 0.0
18/11:00am 30.5 34.2 23.2 65 5.0 SE 9 13 5 7 1007.4 1006.6 0.0
18/10:30am 30.0 34.1 23.9 70 4.2 SE 9 15 5 8 1007.7 1006.9 0.0
18/10:00am 29.2 33.4 24.1 74 3.5 E 9 13 5 7 1008.0 1007.2 0.0
18/09:30am 28.3 32.3 23.7 76 3.2 E 9 13 5 7 1008.3 1007.5 0.0
18/09:00am 28.0 32.4 23.8 78 2.9 E 7 13 4 7 1008.3 1007.5 4.4
18/08:30am 26.5 31.1 24.2 87 1.6 SSE 7 11 4 6 1008.3 1007.5 4.4
18/08:00am 25.5 31.0 24.1 92 1.0 S 2 6 1 3 1008.1 1007.3 4.4
18/07:30am 25.0 30.5 23.4 91 1.1 CALM 0 0 0 0 1008.1 1007.3 4.4
18/07:00am 24.7 30.0 23.1 91 1.1 CALM 0 0 0 0 1007.7 1006.9 4.4
18/06:30am 24.5 29.8 23.1 92 1.0 CALM 0 0 0 0 1007.3 1006.5 4.4
18/06:00am 24.4 30.1 23.7 96 0.5 CALM 0 0 0 0 1007.1 1006.3 4.4
18/05:30am 24.4 28.7 22.7 90 1.1 S 4 7 2 4 1006.9 1006.1 4.4
18/05:00am 24.4 30.1 23.7 96 0.5 CALM 0 0 0 0 1006.6 1005.8 4.4
18/04:30am 24.4 30.0 23.5 95 0.6 CALM 0 0 0 0 1006.5 1005.7 4.4
18/04:00am 24.5 30.1 23.6 95 0.6 CALM 0 0 0 0 1006.2 1005.5 4.4
18/03:30am 24.7 30.4 23.8 95 0.6 CALM 0 0 0 0 1006.4 1005.6 4.4
18/03:00am 24.7 30.4 23.7 94 0.7 CALM 0 0 0 0 1006.5 1005.7 4.4
18/02:30am 24.9 30.7 23.9 94 0.7 CALM 0 0 0 0 1007.0 1006.2 4.4
18/02:00am 24.9 30.6 23.7 93 0.8 CALM 0 0 0 0 1007.2 1006.4 4.4
18/01:30am 25.0 30.5 23.4 91 1.1 CALM 0 0 0 0 1007.4 1006.6 4.4
18/01:00am 25.0 30.6 23.6 92 1.0 CALM 0 0 0 0 1007.9 1007.1 4.4
18/12:30am 25.0 29.4 23.4 91 1.1 SSE 6 7 3 4 1008.2 1007.4 4.4
18/12:00am 25.2 29.6 23.4 90 1.2 ESE 6 9 3 5 1008.4 1007.6 4.4
 
Date/Time
CST
Temp
°C
App
Temp
°C
Dew
Point
°C
Rel
Hum
%
Delta-T
°C
Wind Press
QNH
hPa
Press
MSL
hPa
Rain since
9am
mm
Dir  Spd
km/h
Gust
km/h
Spd
kts
Gust
kts
17/11:30pm 25.3 29.4 23.2 88 1.4 SSE 7 9 4 5 1008.5 1007.7 4.4
17/11:00pm 25.4 29.3 22.9 86 1.7 SE 7 9 4 5 1008.3 1007.5 4.4
17/10:30pm 25.4 30.0 23.1 87 1.6 SE 4 7 2 4 1008.3 1007.5 4.4
17/10:00pm 25.6 30.8 22.9 85 1.8 CALM 0 4 0 2 1008.1 1007.3 4.4
17/09:30pm 25.8 30.3 22.9 84 2.0 SE 4 7 2 4 1007.7 1006.9 4.4
17/09:00pm 25.8 29.9 22.9 84 2.0 ESE 6 9 3 5 1007.6 1006.8 4.4
17/08:30pm 25.8 30.1 22.7 83 2.1 E 4 9 2 5 1006.8 1006.0 4.4
17/08:00pm 26.0 31.0 22.5 81 2.4 CALM 0 6 0 3 1006.5 1005.7 4.4
17/07:30pm 26.1 31.0 22.4 80 2.5 CALM 0 6 0 3 1006.2 1005.5 4.4
17/07:00pm 26.3 29.5 21.7 76 3.1 E 7 11 4 6 1006.0 1005.3 4.4
17/06:30pm 26.7 29.6 21.7 74 3.4 NE 9 15 5 8 1005.9 1005.2 4.4
17/06:00pm 27.4 31.5 23.0 77 3.0 NE 6 11 3 6 1005.4 1004.7 4.4
17/05:30pm 27.6 31.5 22.5 74 3.5 ESE 6 11 3 6 1004.2 1003.4 4.4
17/05:00pm 27.4 30.9 22.8 76 3.1 ESE 9 13 5 7 1004.1 1003.3 4.4
17/04:30pm 27.2 30.8 23.0 78 2.9 ENE 9 15 5 8 1004.6 1003.8 4.4
17/04:00pm 27.2 29.7 23.2 79 2.7 ENE 15 22 8 12 1005.0 1004.2 4.4
17/03:30pm 26.7 29.2 23.2 81 2.4 ESE 15 24 8 13 1005.5 1004.8 4.4
17/03:00pm 25.4 28.3 23.1 87 1.6 SSE 13 22 7 12 1005.9 1005.2 3.2
17/02:30pm 26.9 26.8 21.4 72 3.7 SE 24 52 13 28 1005.7 1005.0 0.4
17/02:23pm 29.1 29.2 20.3 59 5.8 SE 20 52 11 28 1005.5 1004.8 0.0
17/02:22pm 29.8 30.1 20.4 57 6.2 SE 19 52 10 28 1005.4 1004.7 0.0
17/02:00pm 33.5 37.9 23.8 57 6.8 SE 7 15 4 8 1004.9 1004.1 0.0
17/01:30pm 33.4 37.2 24.0 58 6.6 ENE 11 17 6 9 1005.1 1004.3 0.0
17/01:00pm 32.9 36.9 24.4 61 6.0 NE 11 19 6 10 1005.5 1004.8 0.0
17/12:30pm 32.2 36.6 24.5 64 5.4 ENE 9 15 5 8 1005.8 1005.1 0.0
17/12:00pm 31.6 36.4 24.5 66 5.0 ENE 7 13 4 7 1005.9 1005.2 0.0
17/11:30am 31.5 36.2 23.9 64 5.3 N 6 11 3 6 1005.8 1005.1 0.0
17/11:00am 30.5 35.6 24.6 70 4.1 NE 6 13 3 7 1005.8 1005.1 0.0
17/10:30am 29.9 34.7 24.1 71 4.1 NNW 6 9 3 5 1005.8 1005.1 0.0
17/10:00am 28.9 34.0 24.0 75 3.4 NNE 4 7 2 4 1006.1 1005.4 0.0
17/09:30am 28.0 32.4 23.4 76 3.2 ESE 6 11 3 6 1006.5 1005.7 0.0
17/09:00am 27.3 31.3 23.7 81 2.5 ESE 9 13 5 7 1006.2 1005.5 20.0
17/08:30am 26.8 31.7 23.1 80 2.5 ESE 2 7 1 4 1006.2 1005.5 20.0
17/08:00am 25.5 29.9 23.4 88 1.4 SSE 6 7 3 4 1006.1 1005.4 20.0
17/07:30am 24.5 28.6 23.3 93 0.8 WNW 7 9 4 5 1005.3 1004.6 20.0
17/07:00am 23.9 28.8 23.0 95 0.6 NW 2 7 1 4 1005.3 1004.6 20.0
17/06:30am 23.6 27.7 22.9 96 0.5 NW 6 7 3 4 1005.0 1004.2 20.0
17/06:00am 23.5 27.3 22.8 96 0.5 NNW 7 11 4 6 1004.5 1003.7 20.0
17/05:30am 23.4 27.2 22.7 96 0.5 N 7 11 4 6 1004.3 1003.5 20.0
17/05:00am 23.5 27.3 22.8 96 0.5 NNW 7 9 4 5 1004.3 1003.5 20.0
17/04:30am 23.3 26.6 22.5 95 0.5 NNW 9 13 5 7 1004.3 1003.5 20.0
17/04:00am 23.5 26.6 22.8 96 0.5 NNW 11 15 6 8 1004.9 1004.1 20.0
17/03:30am 23.3 26.2 22.5 95 0.5 NNW 11 15 6 8 1005.1 1004.3 19.2
17/03:00am 23.7 27.2 22.9 95 0.5 NW 9 13 5 7 1005.6 1004.9 18.4
17/02:30am 23.7 27.6 22.9 95 0.5 NNW 7 9 4 5 1006.2 1005.5 17.2
17/02:00am 23.7 27.7 22.7 94 0.7 NNW 6 7 3 4 1006.7 1005.9 16.4
17/01:30am 23.6 26.7 22.2 92 0.9 S 9 15 5 8 1007.3 1006.5 15.2
17/01:00am 24.6 27.7 23.6 94 0.7 SE 13 20 7 11 1007.5 1006.7 8.6
17/12:30am 24.5 27.5 23.3 93 0.8 SSW 13 20 7 11 1007.4 1006.6 8.2
17/12:00am 24.4 27.3 23.2 93 0.8 SSW 13 33 7 18 1007.1 1006.3 8.2
 
Date/Time
CST
Temp
°C
App
Temp
°C
Dew
Point
°C
Rel
Hum
%
Delta-T
°C
Wind Press
QNH
hPa
Press
MSL
hPa
Rain since
9am
mm
Dir  Spd
km/h
Gust
km/h
Spd
kts
Gust
kts
16/11:30pm 25.8 29.1 23.8 89 1.4 SSW 13 26 7 14 1007.5 1006.7 7.0
16/11:00pm 26.5 30.8 24.9 91 1.1 WNW 11 15 6 8 1006.9 1006.1 4.2
16/10:30pm 27.4 31.3 24.3 83 2.2 WNW 11 20 6 11 1006.5 1005.7 0.6
16/10:00pm 28.8 33.9 24.6 78 2.9 N 6 7 3 4 1006.1 1005.4 0.0
16/09:30pm 29.3 33.3 23.7 72 3.9 NNE 9 17 5 9 1005.6 1004.9 0.0
16/09:00pm 30.2 34.2 23.1 65 4.9 NNE 7 13 4 7 1005.2 1004.5 0.0
16/08:30pm 30.7 34.9 23.1 64 5.3 N 6 7 3 4 1004.9 1004.1 0.0
16/08:00pm 31.2 35.1 23.0 61 5.7 N 7 11 4 6 1004.4 1003.6 0.0
16/07:30pm 31.7 35.8 23.2 60 5.9 NNE 7 11 4 6 1003.8 1003.0 0.0
16/07:00pm 32.6 37.0 22.1 54 7.2 NNW 2 6 1 3 1003.3 1002.5 0.0
16/06:30pm 33.1 35.9 21.6 51 7.8 ENE 9 17 5 9 1002.4 1001.6 0.0
16/06:00pm 35.7 37.1 18.7 36 11.2 NE 9 13 5 7 1002.0 1001.2 0.0
16/05:30pm 36.4 37.9 18.9 35 11.6 E 9 13 5 7 1001.8 1001.0 0.0
16/05:00pm 36.3 38.4 19.3 37 11.3 NNE 7 13 4 7 1001.6 1000.8 0.0
16/04:30pm 36.8 39.1 20.6 39 11.0 E 9 13 5 7 1001.6 1000.8 0.0
16/04:00pm 36.0 38.1 19.0 36 11.3 N 6 11 3 6 1001.7 1000.9 0.0
16/03:30pm 36.9 40.0 21.1 40 10.8 WNW 6 11 3 6 1002.0 1001.2 0.0
16/03:00pm 36.4 39.1 20.6 39 10.7 E 7 11 4 6 1002.5 1001.7 0.0
16/02:30pm 36.6 39.4 20.8 39 10.8 W 7 11 4 6 1003.2 1002.4 0.0
16/02:00pm 36.2 39.4 21.2 41 10.2 NNE 6 11 3 6 1003.7 1002.9 0.0
16/01:30pm 35.4 38.4 22.0 45 9.2 ENE 9 15 5 8 1004.2 1003.4 0.0

Other Formats:

Comma delimited format used in spreadsheet applications
http://www.bom.gov.au/fwo/IDD60801/IDD60801.94143.axf

JavaScript Object Notation format (JSON) in row-major order
http://www.bom.gov.au/fwo/IDD60801/IDD60801.94143.json